sensor_id;sensor_type;location;lat;lon;timestamp;temperature;humidity
9768;DHT22;4923;52.520;13.494;2023-04-21T00:00:55;11.70;1.00
9768;DHT22;4923;52.520;13.494;2023-04-21T00:03:41;11.70;1.00
9768;DHT22;4923;52.520;13.494;2023-04-21T00:06:28;11.70;1.80
9768;DHT22;4923;52.520;13.494;2023-04-21T00:09:15;11.60;4.40
9768;DHT22;4923;52.520;13.494;2023-04-21T00:12:03;11.50;13.40
9768;DHT22;4923;52.520;13.494;2023-04-21T00:14:51;11.50;23.00
9768;DHT22;4923;52.520;13.494;2023-04-21T00:17:41;11.40;36.30
9768;DHT22;4923;52.520;13.494;2023-04-21T00:20:28;11.30;47.90
9768;DHT22;4923;52.520;13.494;2023-04-21T00:23:15;11.30;59.60
9768;DHT22;4923;52.520;13.494;2023-04-21T00:26:02;11.20;72.10
9768;DHT22;4923;52.520;13.494;2023-04-21T00:28:49;11.20;78.60
9768;DHT22;4923;52.520;13.494;2023-04-21T00:31:37;11.20;87.60
9768;DHT22;4923;52.520;13.494;2023-04-21T00:34:24;11.10;93.20
9768;DHT22;4923;52.520;13.494;2023-04-21T00:37:11;11.10;95.50
9768;DHT22;4923;52.520;13.494;2023-04-21T00:39:58;11.10;96.80
9768;DHT22;4923;52.520;13.494;2023-04-21T00:42:45;11.10;98.10
9768;DHT22;4923;52.520;13.494;2023-04-21T00:45:32;11.10;94.80
9768;DHT22;4923;52.520;13.494;2023-04-21T00:48:20;11.00;94.60
9768;DHT22;4923;52.520;13.494;2023-04-21T00:51:07;11.00;91.70
9768;DHT22;4923;52.520;13.494;2023-04-21T00:53:54;11.00;90.00
9768;DHT22;4923;52.520;13.494;2023-04-21T00:56:41;11.10;84.60
9768;DHT22;4923;52.520;13.494;2023-04-21T00:59:28;11.00;79.30
9768;DHT22;4923;52.520;13.494;2023-04-21T01:02:16;11.00;76.10
9768;DHT22;4923;52.520;13.494;2023-04-21T01:05:05;11.00;66.90
9768;DHT22;4923;52.520;13.494;2023-04-21T01:07:53;11.00;57.60
9768;DHT22;4923;52.520;13.494;2023-04-21T01:10:40;10.90;44.50
9768;DHT22;4923;52.520;13.494;2023-04-21T01:13:27;11.00;27.20
9768;DHT22;4923;52.520;13.494;2023-04-21T01:16:16;10.90;18.90
9768;DHT22;4923;52.520;13.494;2023-04-21T01:19:03;10.90;15.20
9768;DHT22;4923;52.520;13.494;2023-04-21T01:21:52;10.80;12.90
9768;DHT22;4923;52.520;13.494;2023-04-21T01:24:43;10.80;11.70
9768;DHT22;4923;52.520;13.494;2023-04-21T01:27:31;10.70;12.80
9768;DHT22;4923;52.520;13.494;2023-04-21T01:30:18;10.70;14.40
9768;DHT22;4923;52.520;13.494;2023-04-21T01:33:05;10.60;18.00
9768;DHT22;4923;52.520;13.494;2023-04-21T01:35:53;10.60;16.00
9768;DHT22;4923;52.520;13.494;2023-04-21T01:38:41;10.60;13.90
9768;DHT22;4923;52.520;13.494;2023-04-21T01:41:28;10.60;12.10
9768;DHT22;4923;52.520;13.494;2023-04-21T01:44:15;10.60;10.00
9768;DHT22;4923;52.520;13.494;2023-04-21T01:47:02;10.70;1.00
9768;DHT22;4923;52.520;13.494;2023-04-21T01:49:50;10.70;1.00
9768;DHT22;4923;52.520;13.494;2023-04-21T01:52:37;10.70;1.00
9768;DHT22;4923;52.520;13.494;2023-04-21T01:55:25;10.70;1.00
9768;DHT22;4923;52.520;13.494;2023-04-21T01:58:12;10.60;1.00
9768;DHT22;4923;52.520;13.494;2023-04-21T02:00:59;10.60;1.00
9768;DHT22;4923;52.520;13.494;2023-04-21T02:03:46;10.50;1.00
9768;DHT22;4923;52.520;13.494;2023-04-21T02:06:33;10.40;1.00
9768;DHT22;4923;52.520;13.494;2023-04-21T02:09:20;10.40;1.00
9768;DHT22;4923;52.520;13.494;2023-04-21T02:12:08;10.50;1.00
9768;DHT22;4923;52.520;13.494;2023-04-21T02:14:55;10.50;1.00
9768;DHT22;4923;52.520;13.494;2023-04-21T02:17:42;10.40;1.00
9768;DHT22;4923;52.520;13.494;2023-04-21T02:20:29;10.50;1.00
9768;DHT22;4923;52.520;13.494;2023-04-21T02:23:16;10.50;1.00
9768;DHT22;4923;52.520;13.494;2023-04-21T02:26:03;10.40;1.00
9768;DHT22;4923;52.520;13.494;2023-04-21T02:28:51;10.40;1.00
9768;DHT22;4923;52.520;13.494;2023-04-21T02:31:39;10.40;1.00
9768;DHT22;4923;52.520;13.494;2023-04-21T02:34:26;10.30;1.00
9768;DHT22;4923;52.520;13.494;2023-04-21T02:37:13;10.40;1.00
9768;DHT22;4923;52.520;13.494;2023-04-21T02:40:00;10.30;1.00
9768;DHT22;4923;52.520;13.494;2023-04-21T02:42:46;10.20;1.00
9768;DHT22;4923;52.520;13.494;2023-04-21T02:45:35;10.20;1.00
9768;DHT22;4923;52.520;13.494;2023-04-21T02:48:22;10.20;1.00
9768;DHT22;4923;52.520;13.494;2023-04-21T02:51:12;10.20;1.00
9768;DHT22;4923;52.520;13.494;2023-04-21T02:54:00;10.30;1.00
9768;DHT22;4923;52.520;13.494;2023-04-21T02:56:47;10.20;1.00
9768;DHT22;4923;52.520;13.494;2023-04-21T02:59:34;10.20;1.00
9768;DHT22;4923;52.520;13.494;2023-04-21T03:02:22;10.10;1.00
9768;DHT22;4923;52.520;13.494;2023-04-21T03:05:09;10.10;1.00
9768;DHT22;4923;52.520;13.494;2023-04-21T03:07:57;10.10;1.00
9768;DHT22;4923;52.520;13.494;2023-04-21T03:10:44;10.00;1.00
9768;DHT22;4923;52.520;13.494;2023-04-21T03:13:31;10.10;1.00
9768;DHT22;4923;52.520;13.494;2023-04-21T03:16:18;10.10;1.00
9768;DHT22;4923;52.520;13.494;2023-04-21T03:19:06;10.10;1.00
9768;DHT22;4923;52.520;13.494;2023-04-21T03:21:53;10.00;1.00
9768;DHT22;4923;52.520;13.494;2023-04-21T03:24:40;10.00;1.00
9768;DHT22;4923;52.520;13.494;2023-04-21T03:27:27;10.00;1.00
9768;DHT22;4923;52.520;13.494;2023-04-21T03:30:14;9.90;1.00
9768;DHT22;4923;52.520;13.494;2023-04-21T03:33:00;9.90;1.00
9768;DHT22;4923;52.520;13.494;2023-04-21T03:35:49;10.00;1.00
9768;DHT22;4923;52.520;13.494;2023-04-21T03:38:36;9.90;1.00
9768;DHT22;4923;52.520;13.494;2023-04-21T03:41:23;9.90;1.00
9768;DHT22;4923;52.520;13.494;2023-04-21T03:44:09;9.80;1.00
9768;DHT22;4923;52.520;13.494;2023-04-21T03:46:56;9.80;1.00
9768;DHT22;4923;52.520;13.494;2023-04-21T03:49:43;9.70;1.00
9768;DHT22;4923;52.520;13.494;2023-04-21T03:52:31;9.80;1.00
9768;DHT22;4923;52.520;13.494;2023-04-21T03:55:18;9.80;1.00
9768;DHT22;4923;52.520;13.494;2023-04-21T03:58:05;9.70;1.00
9768;DHT22;4923;52.520;13.494;2023-04-21T04:00:52;9.70;1.00
9768;DHT22;4923;52.520;13.494;2023-04-21T04:03:39;9.70;1.00
9768;DHT22;4923;52.520;13.494;2023-04-21T04:06:26;9.70;1.00
9768;DHT22;4923;52.520;13.494;2023-04-21T04:09:14;9.70;1.00
9768;DHT22;4923;52.520;13.494;2023-04-21T04:12:01;9.70;1.00
9768;DHT22;4923;52.520;13.494;2023-04-21T04:14:48;9.80;1.00
9768;DHT22;4923;52.520;13.494;2023-04-21T04:17:35;9.80;1.00
9768;DHT22;4923;52.520;13.494;2023-04-21T04:20:22;9.80;1.00
9768;DHT22;4923;52.520;13.494;2023-04-21T04:23:09;9.80;1.00
9768;DHT22;4923;52.520;13.494;2023-04-21T04:25:57;9.70;1.00
9768;DHT22;4923;52.520;13.494;2023-04-21T04:28:44;9.80;1.00
9768;DHT22;4923;52.520;13.494;2023-04-21T04:31:31;9.80;1.00
9768;DHT22;4923;52.520;13.494;2023-04-21T04:34:19;9.80;1.00
9768;DHT22;4923;52.520;13.494;2023-04-21T04:37:07;9.80;1.00
9768;DHT22;4923;52.520;13.494;2023-04-21T04:39:55;9.80;1.00
9768;DHT22;4923;52.520;13.494;2023-04-21T04:42:43;9.90;1.00
9768;DHT22;4923;52.520;13.494;2023-04-21T04:45:31;10.00;1.00
9768;DHT22;4923;52.520;13.494;2023-04-21T04:48:18;10.00;1.00
9768;DHT22;4923;52.520;13.494;2023-04-21T04:51:05;10.10;1.00
9768;DHT22;4923;52.520;13.494;2023-04-21T04:53:52;10.10;1.00
9768;DHT22;4923;52.520;13.494;2023-04-21T04:56:39;10.10;1.00
9768;DHT22;4923;52.520;13.494;2023-04-21T04:59:27;10.10;1.00
9768;DHT22;4923;52.520;13.494;2023-04-21T05:02:15;10.20;1.00
9768;DHT22;4923;52.520;13.494;2023-04-21T05:05:02;10.30;1.00
9768;DHT22;4923;52.520;13.494;2023-04-21T05:07:49;10.30;1.00
9768;DHT22;4923;52.520;13.494;2023-04-21T05:10:36;10.40;1.00
9768;DHT22;4923;52.520;13.494;2023-04-21T05:13:23;10.40;1.00
9768;DHT22;4923;52.520;13.494;2023-04-21T05:16:11;10.50;1.00
9768;DHT22;4923;52.520;13.494;2023-04-21T05:19:00;10.50;1.00
9768;DHT22;4923;52.520;13.494;2023-04-21T05:21:46;10.50;1.00
9768;DHT22;4923;52.520;13.494;2023-04-21T05:24:33;10.60;1.00
9768;DHT22;4923;52.520;13.494;2023-04-21T05:27:20;10.70;1.00
9768;DHT22;4923;52.520;13.494;2023-04-21T05:30:08;10.70;1.00
9768;DHT22;4923;52.520;13.494;2023-04-21T05:32:56;10.90;1.00
9768;DHT22;4923;52.520;13.494;2023-04-21T05:35:43;10.90;1.00
9768;DHT22;4923;52.520;13.494;2023-04-21T05:38:30;11.00;1.00
9768;DHT22;4923;52.520;13.494;2023-04-21T05:41:17;11.00;1.00
9768;DHT22;4923;52.520;13.494;2023-04-21T05:44:04;11.10;1.00
9768;DHT22;4923;52.520;13.494;2023-04-21T05:46:51;11.20;1.00
9768;DHT22;4923;52.520;13.494;2023-04-21T05:49:39;11.30;1.00
9768;DHT22;4923;52.520;13.494;2023-04-21T05:52:26;11.30;1.00
9768;DHT22;4923;52.520;13.494;2023-04-21T05:55:13;11.30;1.00
9768;DHT22;4923;52.520;13.494;2023-04-21T05:58:00;11.30;1.00
9768;DHT22;4923;52.520;13.494;2023-04-21T06:00:47;11.40;1.00
9768;DHT22;4923;52.520;13.494;2023-04-21T06:03:34;11.50;1.00
9768;DHT22;4923;52.520;13.494;2023-04-21T06:06:24;11.60;1.00
9768;DHT22;4923;52.520;13.494;2023-04-21T06:09:11;11.70;1.00
9768;DHT22;4923;52.520;13.494;2023-04-21T06:12:00;11.80;1.00
9768;DHT22;4923;52.520;13.494;2023-04-21T06:14:47;11.90;1.00
9768;DHT22;4923;52.520;13.494;2023-04-21T06:17:34;12.00;1.00
9768;DHT22;4923;52.520;13.494;2023-04-21T06:20:20;12.10;1.00
9768;DHT22;4923;52.520;13.494;2023-04-21T06:23:09;12.20;1.00
9768;DHT22;4923;52.520;13.494;2023-04-21T06:25:59;12.30;1.00
9768;DHT22;4923;52.520;13.494;2023-04-21T06:28:48;12.50;1.00
9768;DHT22;4923;52.520;13.494;2023-04-21T06:31:35;12.60;1.00
9768;DHT22;4923;52.520;13.494;2023-04-21T06:34:22;12.60;1.00
9768;DHT22;4923;52.520;13.494;2023-04-21T06:37:09;12.70;1.00
9768;DHT22;4923;52.520;13.494;2023-04-21T06:39:57;12.90;1.00
9768;DHT22;4923;52.520;13.494;2023-04-21T06:42:44;13.00;1.00
9768;DHT22;4923;52.520;13.494;2023-04-21T06:45:31;13.10;1.00
9768;DHT22;4923;52.520;13.494;2023-04-21T06:48:18;13.30;1.00
9768;DHT22;4923;52.520;13.494;2023-04-21T06:51:05;13.40;1.00
9768;DHT22;4923;52.520;13.494;2023-04-21T06:53:52;13.50;1.00
9768;DHT22;4923;52.520;13.494;2023-04-21T06:56:40;13.60;1.00
9768;DHT22;4923;52.520;13.494;2023-04-21T06:59:27;13.70;1.00
9768;DHT22;4923;52.520;13.494;2023-04-21T07:02:14;13.80;1.00
9768;DHT22;4923;52.520;13.494;2023-04-21T07:05:01;13.80;1.00
9768;DHT22;4923;52.520;13.494;2023-04-21T07:07:48;13.90;1.00
9768;DHT22;4923;52.520;13.494;2023-04-21T07:10:34;14.00;1.00
9768;DHT22;4923;52.520;13.494;2023-04-21T07:13:23;14.00;1.00
9768;DHT22;4923;52.520;13.494;2023-04-21T07:16:09;14.20;1.00
9768;DHT22;4923;52.520;13.494;2023-04-21T07:18:56;14.30;1.00
9768;DHT22;4923;52.520;13.494;2023-04-21T07:21:43;14.40;1.00
9768;DHT22;4923;52.520;13.494;2023-04-21T07:24:30;14.40;1.00
9768;DHT22;4923;52.520;13.494;2023-04-21T07:27:19;14.50;1.00
9768;DHT22;4923;52.520;13.494;2023-04-21T07:30:08;14.70;1.00
9768;DHT22;4923;52.520;13.494;2023-04-21T07:32:56;14.80;1.00
9768;DHT22;4923;52.520;13.494;2023-04-21T07:35:43;15.00;1.00
9768;DHT22;4923;52.520;13.494;2023-04-21T07:38:29;15.00;1.00
9768;DHT22;4923;52.520;13.494;2023-04-21T07:41:16;15.00;1.00
9768;DHT22;4923;52.520;13.494;2023-04-21T07:44:04;15.10;1.00
9768;DHT22;4923;52.520;13.494;2023-04-21T07:46:52;15.00;1.00
9768;DHT22;4923;52.520;13.494;2023-04-21T07:49:39;15.10;1.00
9768;DHT22;4923;52.520;13.494;2023-04-21T07:52:25;15.30;1.00
9768;DHT22;4923;52.520;13.494;2023-04-21T07:55:12;15.50;1.00
9768;DHT22;4923;52.520;13.494;2023-04-21T07:57:59;15.80;1.00
9768;DHT22;4923;52.520;13.494;2023-04-21T08:00:46;15.80;1.00
9768;DHT22;4923;52.520;13.494;2023-04-21T08:03:34;15.90;1.00
9768;DHT22;4923;52.520;13.494;2023-04-21T08:06:21;15.80;1.00
9768;DHT22;4923;52.520;13.494;2023-04-21T08:09:08;15.80;1.00
9768;DHT22;4923;52.520;13.494;2023-04-21T08:11:55;16.00;1.00
9768;DHT22;4923;52.520;13.494;2023-04-21T08:14:42;16.20;1.00
9768;DHT22;4923;52.520;13.494;2023-04-21T08:17:29;16.20;1.00
9768;DHT22;4923;52.520;13.494;2023-04-21T08:20:17;16.30;1.00
9768;DHT22;4923;52.520;13.494;2023-04-21T08:23:04;16.30;1.00
9768;DHT22;4923;52.520;13.494;2023-04-21T08:25:51;16.30;1.00
9768;DHT22;4923;52.520;13.494;2023-04-21T08:28:38;16.50;1.00
9768;DHT22;4923;52.520;13.494;2023-04-21T08:31:25;16.50;1.00
9768;DHT22;4923;52.520;13.494;2023-04-21T08:34:11;16.50;1.00
9768;DHT22;4923;52.520;13.494;2023-04-21T08:37:00;16.70;1.00
9768;DHT22;4923;52.520;13.494;2023-04-21T08:39:47;16.70;1.00
9768;DHT22;4923;52.520;13.494;2023-04-21T08:42:37;16.70;1.00
9768;DHT22;4923;52.520;13.494;2023-04-21T08:45:24;16.90;1.00
9768;DHT22;4923;52.520;13.494;2023-04-21T08:48:13;17.10;1.00
9768;DHT22;4923;52.520;13.494;2023-04-21T08:51:04;17.10;1.00
9768;DHT22;4923;52.520;13.494;2023-04-21T08:53:54;17.20;1.00
9768;DHT22;4923;52.520;13.494;2023-04-21T08:56:41;17.20;1.00
9768;DHT22;4923;52.520;13.494;2023-04-21T08:59:28;17.30;1.00
9768;DHT22;4923;52.520;13.494;2023-04-21T09:02:17;17.40;1.00
9768;DHT22;4923;52.520;13.494;2023-04-21T09:05:04;17.40;1.00
9768;DHT22;4923;52.520;13.494;2023-04-21T09:08:06;17.30;1.00
9768;DHT22;4923;52.520;13.494;2023-04-21T09:10:55;17.30;1.00
9768;DHT22;4923;52.520;13.494;2023-04-21T09:13:42;17.40;1.00
9768;DHT22;4923;52.520;13.494;2023-04-21T09:16:30;17.30;1.00
9768;DHT22;4923;52.520;13.494;2023-04-21T09:19:18;17.40;1.00
9768;DHT22;4923;52.520;13.494;2023-04-21T09:22:05;17.30;1.00
9768;DHT22;4923;52.520;13.494;2023-04-21T09:24:57;17.40;1.00
9768;DHT22;4923;52.520;13.494;2023-04-21T09:27:46;17.50;1.00
9768;DHT22;4923;52.520;13.494;2023-04-21T09:30:34;17.60;1.00
9768;DHT22;4923;52.520;13.494;2023-04-21T09:33:21;17.70;1.00
9768;DHT22;4923;52.520;13.494;2023-04-21T09:36:17;17.70;1.00
9768;DHT22;4923;52.520;13.494;2023-04-21T09:39:05;17.80;1.00
9768;DHT22;4923;52.520;13.494;2023-04-21T09:41:52;17.90;1.00
9768;DHT22;4923;52.520;13.494;2023-04-21T09:44:40;17.80;1.00
9768;DHT22;4923;52.520;13.494;2023-04-21T09:47:28;17.80;1.00
9768;DHT22;4923;52.520;13.494;2023-04-21T09:50:15;17.80;1.00
9768;DHT22;4923;52.520;13.494;2023-04-21T09:53:04;18.00;1.00
9768;DHT22;4923;52.520;13.494;2023-04-21T09:55:53;18.20;1.00
9768;DHT22;4923;52.520;13.494;2023-04-21T09:58:45;18.60;1.00
9768;DHT22;4923;52.520;13.494;2023-04-21T10:01:34;18.80;1.00
9768;DHT22;4923;52.520;13.494;2023-04-21T10:04:24;18.70;1.00
9768;DHT22;4923;52.520;13.494;2023-04-21T10:07:11;18.60;1.00
9768;DHT22;4923;52.520;13.494;2023-04-21T10:09:59;18.40;1.00
9768;DHT22;4923;52.520;13.494;2023-04-21T10:12:46;18.50;1.00
9768;DHT22;4923;52.520;13.494;2023-04-21T10:15:36;18.70;1.00
9768;DHT22;4923;52.520;13.494;2023-04-21T10:18:28;18.90;1.00
9768;DHT22;4923;52.520;13.494;2023-04-21T10:21:17;19.00;1.00
9768;DHT22;4923;52.520;13.494;2023-04-21T10:24:06;19.10;1.00
9768;DHT22;4923;52.520;13.494;2023-04-21T10:26:56;19.10;1.00
9768;DHT22;4923;52.520;13.494;2023-04-21T10:29:44;19.10;1.00
9768;DHT22;4923;52.520;13.494;2023-04-21T10:32:38;19.30;1.00
9768;DHT22;4923;52.520;13.494;2023-04-21T10:35:57;19.40;1.00
9768;DHT22;4923;52.520;13.494;2023-04-21T10:38:54;19.40;1.00
9768;DHT22;4923;52.520;13.494;2023-04-21T10:41:42;19.50;1.00
9768;DHT22;4923;52.520;13.494;2023-04-21T10:44:30;19.60;1.00
9768;DHT22;4923;52.520;13.494;2023-04-21T10:47:24;19.60;1.00
9768;DHT22;4923;52.520;13.494;2023-04-21T10:50:16;19.80;1.00
9768;DHT22;4923;52.520;13.494;2023-04-21T10:53:08;19.60;1.00
9768;DHT22;4923;52.520;13.494;2023-04-21T10:55:56;19.60;1.00
9768;DHT22;4923;52.520;13.494;2023-04-21T10:58:43;19.60;1.00
9768;DHT22;4923;52.520;13.494;2023-04-21T11:01:30;19.60;1.00
9768;DHT22;4923;52.520;13.494;2023-04-21T11:04:19;19.60;1.00
9768;DHT22;4923;52.520;13.494;2023-04-21T11:07:07;19.80;1.00
9768;DHT22;4923;52.520;13.494;2023-04-21T11:09:59;19.80;1.00
9768;DHT22;4923;52.520;13.494;2023-04-21T11:12:47;19.80;1.00
9768;DHT22;4923;52.520;13.494;2023-04-21T11:15:33;19.80;1.00
9768;DHT22;4923;52.520;13.494;2023-04-21T11:18:20;19.80;1.00
9768;DHT22;4923;52.520;13.494;2023-04-21T11:21:12;19.90;1.00
9768;DHT22;4923;52.520;13.494;2023-04-21T11:24:02;19.80;1.00
9768;DHT22;4923;52.520;13.494;2023-04-21T11:26:51;19.90;1.00
9768;DHT22;4923;52.520;13.494;2023-04-21T11:29:37;19.90;1.00
9768;DHT22;4923;52.520;13.494;2023-04-21T11:32:25;19.80;1.00
9768;DHT22;4923;52.520;13.494;2023-04-21T11:35:11;19.70;1.00
9768;DHT22;4923;52.520;13.494;2023-04-21T11:38:03;19.70;1.00
9768;DHT22;4923;52.520;13.494;2023-04-21T11:40:50;19.80;1.00
9768;DHT22;4923;52.520;13.494;2023-04-21T11:43:39;20.00;1.00
9768;DHT22;4923;52.520;13.494;2023-04-21T11:46:27;20.00;1.00
9768;DHT22;4923;52.520;13.494;2023-04-21T11:49:14;20.10;1.00
9768;DHT22;4923;52.520;13.494;2023-04-21T11:52:03;20.20;1.00
9768;DHT22;4923;52.520;13.494;2023-04-21T11:54:56;20.30;1.00
9768;DHT22;4923;52.520;13.494;2023-04-21T11:57:43;20.30;1.00
9768;DHT22;4923;52.520;13.494;2023-04-21T12:00:31;20.40;1.00
9768;DHT22;4923;52.520;13.494;2023-04-21T12:03:18;20.50;1.00
9768;DHT22;4923;52.520;13.494;2023-04-21T12:06:05;20.40;1.00
9768;DHT22;4923;52.520;13.494;2023-04-21T12:08:59;20.10;1.00
9768;DHT22;4923;52.520;13.494;2023-04-21T12:11:47;20.20;1.00
9768;DHT22;4923;52.520;13.494;2023-04-21T12:14:34;20.00;1.00
9768;DHT22;4923;52.520;13.494;2023-04-21T12:17:22;20.10;1.00
9768;DHT22;4923;52.520;13.494;2023-04-21T12:20:11;20.30;1.00
9768;DHT22;4923;52.520;13.494;2023-04-21T12:22:58;20.60;1.00
9768;DHT22;4923;52.520;13.494;2023-04-21T12:25:45;20.70;1.00
9768;DHT22;4923;52.520;13.494;2023-04-21T12:28:32;20.70;1.00
9768;DHT22;4923;52.520;13.494;2023-04-21T12:31:19;20.60;1.00
9768;DHT22;4923;52.520;13.494;2023-04-21T12:34:07;20.70;1.00
9768;DHT22;4923;52.520;13.494;2023-04-21T12:36:54;20.50;1.00
9768;DHT22;4923;52.520;13.494;2023-04-21T12:39:41;20.60;1.00
9768;DHT22;4923;52.520;13.494;2023-04-21T12:42:28;20.70;1.00
9768;DHT22;4923;52.520;13.494;2023-04-21T12:45:15;20.50;1.00
9768;DHT22;4923;52.520;13.494;2023-04-21T12:48:02;20.50;1.00
9768;DHT22;4923;52.520;13.494;2023-04-21T12:50:50;20.60;1.00
9768;DHT22;4923;52.520;13.494;2023-04-21T12:53:37;20.60;1.00
9768;DHT22;4923;52.520;13.494;2023-04-21T12:56:24;20.50;1.00
9768;DHT22;4923;52.520;13.494;2023-04-21T12:59:11;20.60;1.00
9768;DHT22;4923;52.520;13.494;2023-04-21T13:01:58;20.80;1.00
9768;DHT22;4923;52.520;13.494;2023-04-21T13:04:45;20.70;1.00
9768;DHT22;4923;52.520;13.494;2023-04-21T13:07:33;20.80;1.00
9768;DHT22;4923;52.520;13.494;2023-04-21T13:10:20;20.70;1.00
9768;DHT22;4923;52.520;13.494;2023-04-21T13:13:07;20.60;1.00
9768;DHT22;4923;52.520;13.494;2023-04-21T13:15:54;20.50;1.00
9768;DHT22;4923;52.520;13.494;2023-04-21T13:18:41;20.80;1.00
9768;DHT22;4923;52.520;13.494;2023-04-21T13:21:28;20.80;1.00
9768;DHT22;4923;52.520;13.494;2023-04-21T13:24:16;20.90;1.00
9768;DHT22;4923;52.520;13.494;2023-04-21T13:27:03;20.90;1.00
9768;DHT22;4923;52.520;13.494;2023-04-21T13:29:49;20.80;1.00
9768;DHT22;4923;52.520;13.494;2023-04-21T13:32:39;20.80;1.00
9768;DHT22;4923;52.520;13.494;2023-04-21T13:35:26;20.90;1.00
9768;DHT22;4923;52.520;13.494;2023-04-21T13:38:13;20.60;1.00
9768;DHT22;4923;52.520;13.494;2023-04-21T13:41:01;20.70;1.00
9768;DHT22;4923;52.520;13.494;2023-04-21T13:43:48;20.90;1.00
9768;DHT22;4923;52.520;13.494;2023-04-21T13:46:35;21.00;1.00
9768;DHT22;4923;52.520;13.494;2023-04-21T13:49:22;21.10;1.00
9768;DHT22;4923;52.520;13.494;2023-04-21T13:52:08;21.10;1.00
9768;DHT22;4923;52.520;13.494;2023-04-21T13:54:56;21.30;1.00
9768;DHT22;4923;52.520;13.494;2023-04-21T13:57:44;21.30;1.00
9768;DHT22;4923;52.520;13.494;2023-04-21T14:00:31;21.00;1.00
9768;DHT22;4923;52.520;13.494;2023-04-21T14:03:18;20.90;1.00
9768;DHT22;4923;52.520;13.494;2023-04-21T14:06:05;20.90;1.00
9768;DHT22;4923;52.520;13.494;2023-04-21T14:08:52;20.90;1.00
9768;DHT22;4923;52.520;13.494;2023-04-21T14:11:39;20.90;1.00
9768;DHT22;4923;52.520;13.494;2023-04-21T14:14:27;20.90;1.00
9768;DHT22;4923;52.520;13.494;2023-04-21T14:17:14;20.70;1.00
9768;DHT22;4923;52.520;13.494;2023-04-21T14:20:02;20.60;1.00
9768;DHT22;4923;52.520;13.494;2023-04-21T14:22:49;20.50;1.00
9768;DHT22;4923;52.520;13.494;2023-04-21T14:25:35;20.30;1.00
9768;DHT22;4923;52.520;13.494;2023-04-21T14:28:22;20.30;1.00
9768;DHT22;4923;52.520;13.494;2023-04-21T14:31:10;20.10;1.00
9768;DHT22;4923;52.520;13.494;2023-04-21T14:33:57;20.20;1.00
9768;DHT22;4923;52.520;13.494;2023-04-21T14:36:44;20.30;1.00
9768;DHT22;4923;52.520;13.494;2023-04-21T14:39:34;20.40;1.00
9768;DHT22;4923;52.520;13.494;2023-04-21T14:42:21;20.60;1.00
9768;DHT22;4923;52.520;13.494;2023-04-21T14:45:09;20.50;1.00
9768;DHT22;4923;52.520;13.494;2023-04-21T14:47:57;20.60;1.00
9768;DHT22;4923;52.520;13.494;2023-04-21T14:50:44;20.70;1.00
9768;DHT22;4923;52.520;13.494;2023-04-21T14:53:30;20.50;1.00
9768;DHT22;4923;52.520;13.494;2023-04-21T14:56:17;20.50;1.00
9768;DHT22;4923;52.520;13.494;2023-04-21T14:59:05;20.50;1.00
9768;DHT22;4923;52.520;13.494;2023-04-21T15:01:52;20.40;1.00
9768;DHT22;4923;52.520;13.494;2023-04-21T15:04:40;20.40;1.00
9768;DHT22;4923;52.520;13.494;2023-04-21T15:07:27;20.50;1.00
9768;DHT22;4923;52.520;13.494;2023-04-21T15:10:13;20.40;1.00
9768;DHT22;4923;52.520;13.494;2023-04-21T15:13:00;20.30;1.00
9768;DHT22;4923;52.520;13.494;2023-04-21T15:15:47;20.40;1.00
9768;DHT22;4923;52.520;13.494;2023-04-21T15:18:36;20.50;1.00
9768;DHT22;4923;52.520;13.494;2023-04-21T15:21:24;20.50;1.00
9768;DHT22;4923;52.520;13.494;2023-04-21T15:24:11;20.40;1.00
9768;DHT22;4923;52.520;13.494;2023-04-21T15:26:58;20.40;1.00
9768;DHT22;4923;52.520;13.494;2023-04-21T15:29:45;20.40;1.00
9768;DHT22;4923;52.520;13.494;2023-04-21T15:32:32;20.30;1.00
9768;DHT22;4923;52.520;13.494;2023-04-21T15:35:19;20.40;1.00
9768;DHT22;4923;52.520;13.494;2023-04-21T15:38:07;20.30;1.00
9768;DHT22;4923;52.520;13.494;2023-04-21T15:40:54;20.20;1.00
9768;DHT22;4923;52.520;13.494;2023-04-21T15:43:41;20.30;1.00
9768;DHT22;4923;52.520;13.494;2023-04-21T15:46:28;20.30;1.00
9768;DHT22;4923;52.520;13.494;2023-04-21T15:49:15;20.20;1.00
9768;DHT22;4923;52.520;13.494;2023-04-21T15:52:02;20.20;1.00
9768;DHT22;4923;52.520;13.494;2023-04-21T15:54:51;20.20;1.00
9768;DHT22;4923;52.520;13.494;2023-04-21T15:57:38;20.20;1.00
9768;DHT22;4923;52.520;13.494;2023-04-21T16:00:25;20.10;1.00
9768;DHT22;4923;52.520;13.494;2023-04-21T16:03:12;20.10;1.00
9768;DHT22;4923;52.520;13.494;2023-04-21T16:05:59;20.10;1.00
9768;DHT22;4923;52.520;13.494;2023-04-21T16:08:46;20.00;1.00
9768;DHT22;4923;52.520;13.494;2023-04-21T16:11:34;19.90;1.00
9768;DHT22;4923;52.520;13.494;2023-04-21T16:14:21;19.90;1.00
9768;DHT22;4923;52.520;13.494;2023-04-21T16:17:08;19.90;1.00
9768;DHT22;4923;52.520;13.494;2023-04-21T16:19:55;19.80;1.00
9768;DHT22;4923;52.520;13.494;2023-04-21T16:22:42;19.70;1.00
9768;DHT22;4923;52.520;13.494;2023-04-21T16:25:29;19.70;1.00
9768;DHT22;4923;52.520;13.494;2023-04-21T16:28:17;19.70;1.00
9768;DHT22;4923;52.520;13.494;2023-04-21T16:31:04;19.60;1.00
9768;DHT22;4923;52.520;13.494;2023-04-21T16:33:51;19.60;1.00
9768;DHT22;4923;52.520;13.494;2023-04-21T16:36:44;19.50;1.00
9768;DHT22;4923;52.520;13.494;2023-04-21T16:39:30;19.50;1.00
9768;DHT22;4923;52.520;13.494;2023-04-21T16:42:17;19.50;1.00
9768;DHT22;4923;52.520;13.494;2023-04-21T16:45:06;19.50;1.00
9768;DHT22;4923;52.520;13.494;2023-04-21T16:47:53;19.50;1.00
9768;DHT22;4923;52.520;13.494;2023-04-21T16:50:40;19.50;1.00
9768;DHT22;4923;52.520;13.494;2023-04-21T16:53:27;19.60;1.00
9768;DHT22;4923;52.520;13.494;2023-04-21T16:56:14;19.70;1.00
9768;DHT22;4923;52.520;13.494;2023-04-21T16:59:01;19.90;1.00
9768;DHT22;4923;52.520;13.494;2023-04-21T17:01:49;20.40;1.00
9768;DHT22;4923;52.520;13.494;2023-04-21T17:04:36;20.80;1.00
9768;DHT22;4923;52.520;13.494;2023-04-21T17:07:24;21.10;1.00
9768;DHT22;4923;52.520;13.494;2023-04-21T17:10:11;21.50;1.00
9768;DHT22;4923;52.520;13.494;2023-04-21T17:12:58;21.70;1.00
9768;DHT22;4923;52.520;13.494;2023-04-21T17:15:45;21.90;1.00
9768;DHT22;4923;52.520;13.494;2023-04-21T17:18:33;21.90;1.00
9768;DHT22;4923;52.520;13.494;2023-04-21T17:21:20;21.90;1.00
9768;DHT22;4923;52.520;13.494;2023-04-21T17:24:07;21.90;1.00
9768;DHT22;4923;52.520;13.494;2023-04-21T17:26:54;21.80;1.00
9768;DHT22;4923;52.520;13.494;2023-04-21T17:29:41;21.50;1.00
9768;DHT22;4923;52.520;13.494;2023-04-21T17:32:28;21.40;1.00
9768;DHT22;4923;52.520;13.494;2023-04-21T17:35:16;21.30;1.00
9768;DHT22;4923;52.520;13.494;2023-04-21T17:38:03;21.10;1.00
9768;DHT22;4923;52.520;13.494;2023-04-21T17:40:51;21.00;1.00
9768;DHT22;4923;52.520;13.494;2023-04-21T17:43:38;21.10;1.00
9768;DHT22;4923;52.520;13.494;2023-04-21T17:46:25;20.90;1.00
9768;DHT22;4923;52.520;13.494;2023-04-21T17:49:12;20.50;1.00
9768;DHT22;4923;52.520;13.494;2023-04-21T17:52:00;20.20;1.00
9768;DHT22;4923;52.520;13.494;2023-04-21T17:54:47;19.90;1.00
9768;DHT22;4923;52.520;13.494;2023-04-21T17:57:34;19.70;1.00
9768;DHT22;4923;52.520;13.494;2023-04-21T18:00:20;19.40;1.00
9768;DHT22;4923;52.520;13.494;2023-04-21T18:03:07;18.80;1.00
9768;DHT22;4923;52.520;13.494;2023-04-21T18:05:54;18.40;1.00
9768;DHT22;4923;52.520;13.494;2023-04-21T18:08:42;18.10;1.00
9768;DHT22;4923;52.520;13.494;2023-04-21T18:11:29;17.80;1.00
9768;DHT22;4923;52.520;13.494;2023-04-21T18:14:17;17.50;1.00